Val-d'Or, Canada
Current Conditions -  °F | °C
As of 10:00 AM on Thursday 18 Dec 2014 (Local Time) from CYVO Reporting Station
Light Snow Light Snow  
Wind Chill: -1°   Ceiling: 900
Heat Index: 14°   Visibility: 12mi
Dew Point: 12°   Wind: 14mph
Humidity: 93%   Direction: 340°NNW
Pressure: 30.06"   Gusts: NA
Location:  48.1°N, 77.79°W
Report Text: CYVO 181500Z 34012KT 300V360 12SM -SN OVC009 M10/M11 A3006 RMK SC8 SLP206
Loading
Personal Weather Stations






























Interactive Weather Map New forecast layout! Learn more

10-Day Weather Forecast

Advertisements
Track Severe Weather on mobile